sensor_id;sensor_type;location;lat;lon;timestamp;pressure;altitude;pressure_sealevel;temperature;humidity
75521;BME280;64102;48.628;9.002;2022-10-16T00:00:41;95958.25;;;14.54;81.85
75521;BME280;64102;48.628;9.002;2022-10-16T00:03:08;95960.34;;;14.58;81.25
75521;BME280;64102;48.628;9.002;2022-10-16T00:05:38;95958.56;;;14.59;81.15
75521;BME280;64102;48.628;9.002;2022-10-16T00:08:04;95964.41;;;14.53;81.43
75521;BME280;64102;48.628;9.002;2022-10-16T00:10:29;95964.75;;;14.50;82.19
75521;BME280;64102;48.628;9.002;2022-10-16T00:12:55;95967.16;;;14.51;81.35
75521;BME280;64102;48.628;9.002;2022-10-16T00:15:20;95967.34;;;14.50;81.25
75521;BME280;64102;48.628;9.002;2022-10-16T00:17:45;95978.22;;;14.45;81.90
75521;BME280;64102;48.628;9.002;2022-10-16T00:20:11;95975.66;;;14.37;81.92
75521;BME280;64102;48.628;9.002;2022-10-16T00:22:36;95976.44;;;14.38;82.32
75521;BME280;64102;48.628;9.002;2022-10-16T00:25:02;95982.28;;;14.40;81.65
75521;BME280;64102;48.628;9.002;2022-10-16T00:27:27;95979.47;;;14.33;82.59
75521;BME280;64102;48.628;9.002;2022-10-16T00:29:53;95975.94;;;14.26;82.57
75521;BME280;64102;48.628;9.002;2022-10-16T00:32:19;95970.25;;;14.22;82.94
75521;BME280;64102;48.628;9.002;2022-10-16T00:34:45;95966.03;;;14.21;82.67
75521;BME280;64102;48.628;9.002;2022-10-16T00:37:10;95957.94;;;14.16;83.05
75521;BME280;64102;48.628;9.002;2022-10-16T00:39:36;95970.91;;;14.16;82.81
75521;BME280;64102;48.628;9.002;2022-10-16T00:42:01;95962.50;;;14.14;82.71
75521;BME280;64102;48.628;9.002;2022-10-16T00:44:52;95956.00;;;14.10;83.10
75521;BME280;64102;48.628;9.002;2022-10-16T00:47:31;95954.06;;;14.04;83.60
75521;BME280;64102;48.628;9.002;2022-10-16T00:50:11;95961.84;;;14.04;83.65
75521;BME280;64102;48.628;9.002;2022-10-16T00:52:42;95960.19;;;14.11;83.19
75521;BME280;64102;48.628;9.002;2022-10-16T00:55:09;95961.19;;;14.10;83.17
75521;BME280;64102;48.628;9.002;2022-10-16T00:57:35;95963.13;;;14.08;83.09
75521;BME280;64102;48.628;9.002;2022-10-16T01:00:04;95970.75;;;14.10;83.34
75521;BME280;64102;48.628;9.002;2022-10-16T01:02:30;95968.97;;;14.18;82.42
75521;BME280;64102;48.628;9.002;2022-10-16T01:04:55;95967.34;;;14.17;83.03
75521;BME280;64102;48.628;9.002;2022-10-16T01:12:41;95985.66;;;14.32;82.11
75521;BME280;64102;48.628;9.002;2022-10-16T01:17:49;95988.41;;;14.30;82.04
75521;BME280;64102;48.628;9.002;2022-10-16T01:28:06;95972.72;;;14.24;82.13
75521;BME280;64102;48.628;9.002;2022-10-16T01:30:37;95976.41;;;14.29;82.09
75521;BME280;64102;48.628;9.002;2022-10-16T01:33:35;95977.44;;;14.37;81.96
75521;BME280;64102;48.628;9.002;2022-10-16T01:36:15;95970.75;;;14.50;80.83
75521;BME280;64102;48.628;9.002;2022-10-16T01:38:43;95971.69;;;14.57;81.00
75521;BME280;64102;48.628;9.002;2022-10-16T01:41:17;95973.94;;;14.60;80.36
75521;BME280;64102;48.628;9.002;2022-10-16T01:43:57;95973.13;;;14.60;80.50
75521;BME280;64102;48.628;9.002;2022-10-16T01:46:27;95977.38;;;14.61;80.63
75521;BME280;64102;48.628;9.002;2022-10-16T01:48:53;95978.34;;;14.60;80.64
75521;BME280;64102;48.628;9.002;2022-10-16T01:51:20;95977.72;;;14.58;80.60
75521;BME280;64102;48.628;9.002;2022-10-16T01:53:51;95973.16;;;14.52;80.74
75521;BME280;64102;48.628;9.002;2022-10-16T01:56:18;95971.41;;;14.44;81.65
75521;BME280;64102;48.628;9.002;2022-10-16T01:58:51;95967.03;;;14.45;81.18
75521;BME280;64102;48.628;9.002;2022-10-16T02:01:19;95960.03;;;14.53;81.04
75521;BME280;64102;48.628;9.002;2022-10-16T02:03:46;95963.25;;;14.55;80.47
75521;BME280;64102;48.628;9.002;2022-10-16T02:06:13;95958.25;;;14.54;80.57
75521;BME280;64102;48.628;9.002;2022-10-16T02:08:39;95964.38;;;14.61;80.63
75521;BME280;64102;48.628;9.002;2022-10-16T02:11:09;95969.88;;;14.66;80.07
75521;BME280;64102;48.628;9.002;2022-10-16T02:13:57;95969.53;;;14.69;80.12
75521;BME280;64102;48.628;9.002;2022-10-16T02:16:39;95967.09;;;14.75;79.18
75521;BME280;64102;48.628;9.002;2022-10-16T02:19:06;95980.06;;;14.84;78.99
75521;BME280;64102;48.628;9.002;2022-10-16T02:21:38;95977.63;;;14.82;79.47
75521;BME280;64102;48.628;9.002;2022-10-16T02:26:51;95974.53;;;14.87;78.86
75521;BME280;64102;48.628;9.002;2022-10-16T02:29:21;95963.19;;;14.79;79.21
75521;BME280;64102;48.628;9.002;2022-10-16T02:31:50;95959.97;;;14.69;80.13
75521;BME280;64102;48.628;9.002;2022-10-16T02:34:18;95962.91;;;14.66;80.26
75521;BME280;64102;48.628;9.002;2022-10-16T02:36:44;95962.13;;;14.58;80.40
75521;BME280;64102;48.628;9.002;2022-10-16T02:39:11;95962.94;;;14.58;80.45
75521;BME280;64102;48.628;9.002;2022-10-16T02:41:37;95960.66;;;14.55;81.25
75521;BME280;64102;48.628;9.002;2022-10-16T02:44:02;95964.22;;;14.62;80.07
75521;BME280;64102;48.628;9.002;2022-10-16T02:46:28;95966.16;;;14.68;79.77
75521;BME280;64102;48.628;9.002;2022-10-16T02:48:53;95969.53;;;14.69;79.87
75521;BME280;64102;48.628;9.002;2022-10-16T02:51:18;95973.47;;;14.73;79.63
75521;BME280;64102;48.628;9.002;2022-10-16T02:53:44;95978.34;;;14.68;80.07
75521;BME280;64102;48.628;9.002;2022-10-16T02:56:09;95974.75;;;14.69;79.52
75521;BME280;64102;48.628;9.002;2022-10-16T02:58:35;95971.19;;;14.62;80.24
75521;BME280;64102;48.628;9.002;2022-10-16T03:01:00;95984.34;;;14.60;80.21
75521;BME280;64102;48.628;9.002;2022-10-16T03:03:26;95990.53;;;14.51;80.53
75521;BME280;64102;48.628;9.002;2022-10-16T03:05:51;95990.38;;;14.45;81.12
75521;BME280;64102;48.628;9.002;2022-10-16T03:08:16;95984.03;;;14.47;80.53
75521;BME280;64102;48.628;9.002;2022-10-16T03:10:42;95978.38;;;14.44;80.83
75521;BME280;64102;48.628;9.002;2022-10-16T03:13:07;95979.53;;;14.41;81.33
75521;BME280;64102;48.628;9.002;2022-10-16T03:15:33;95974.00;;;14.44;80.94
75521;BME280;64102;48.628;9.002;2022-10-16T03:17:58;95972.56;;;14.42;80.92
75521;BME280;64102;48.628;9.002;2022-10-16T03:20:24;95972.56;;;14.42;81.32
75521;BME280;64102;48.628;9.002;2022-10-16T03:22:50;95972.84;;;14.39;81.04
75521;BME280;64102;48.628;9.002;2022-10-16T03:25:15;95980.03;;;14.37;81.08
75521;BME280;64102;48.628;9.002;2022-10-16T03:27:41;95973.19;;;14.36;81.71
75521;BME280;64102;48.628;9.002;2022-10-16T03:30:06;95973.81;;;14.38;80.97
75521;BME280;64102;48.628;9.002;2022-10-16T03:32:32;95984.53;;;14.34;81.20
75521;BME280;64102;48.628;9.002;2022-10-16T03:34:58;95978.88;;;14.39;81.32
75521;BME280;64102;48.628;9.002;2022-10-16T03:37:23;95971.06;;;14.39;81.11
75521;BME280;64102;48.628;9.002;2022-10-16T03:39:49;95969.97;;;14.42;80.80
75521;BME280;64102;48.628;9.002;2022-10-16T03:42:14;95979.03;;;14.38;80.79
75521;BME280;64102;48.628;9.002;2022-10-16T03:44:39;95980.66;;;14.39;80.93
75521;BME280;64102;48.628;9.002;2022-10-16T03:47:05;95989.72;;;14.34;81.47
75521;BME280;64102;48.628;9.002;2022-10-16T03:49:30;95986.66;;;14.39;80.99
75521;BME280;64102;48.628;9.002;2022-10-16T03:51:55;95988.63;;;14.37;81.41
75521;BME280;64102;48.628;9.002;2022-10-16T03:54:21;95994.91;;;14.34;80.93
75521;BME280;64102;48.628;9.002;2022-10-16T03:56:47;95990.88;;;14.32;81.19
75521;BME280;64102;48.628;9.002;2022-10-16T03:59:13;95989.22;;;14.31;81.77
75521;BME280;64102;48.628;9.002;2022-10-16T04:01:38;95991.22;;;14.37;80.51
75521;BME280;64102;48.628;9.002;2022-10-16T04:04:04;95990.06;;;14.48;80.13
75521;BME280;64102;48.628;9.002;2022-10-16T04:06:29;95987.13;;;14.51;79.84
75521;BME280;64102;48.628;9.002;2022-10-16T04:08:55;95978.19;;;14.53;79.93
75521;BME280;64102;48.628;9.002;2022-10-16T04:11:20;95989.41;;;14.54;79.91
75521;BME280;64102;48.628;9.002;2022-10-16T04:13:46;95994.59;;;14.54;80.07
75521;BME280;64102;48.628;9.002;2022-10-16T04:16:11;95986.13;;;14.60;79.60
75521;BME280;64102;48.628;9.002;2022-10-16T04:18:36;95991.19;;;14.53;79.70
75521;BME280;64102;48.628;9.002;2022-10-16T04:21:06;95994.91;;;14.51;80.08
75521;BME280;64102;48.628;9.002;2022-10-16T04:23:32;95991.03;;;14.55;79.82
75521;BME280;64102;48.628;9.002;2022-10-16T04:25:58;95985.66;;;14.48;80.06
75521;BME280;64102;48.628;9.002;2022-10-16T04:28:24;95986.97;;;14.52;80.07
75521;BME280;64102;48.628;9.002;2022-10-16T04:30:49;95989.22;;;14.55;79.64
75521;BME280;64102;48.628;9.002;2022-10-16T04:33:14;95989.41;;;14.54;79.96
75521;BME280;64102;48.628;9.002;2022-10-16T04:35:40;95981.28;;;14.57;79.46
75521;BME280;64102;48.628;9.002;2022-10-16T04:38:05;95995.41;;;14.54;80.15
75521;BME280;64102;48.628;9.002;2022-10-16T04:40:30;95989.53;;;14.60;79.30
75521;BME280;64102;48.628;9.002;2022-10-16T04:43:01;95986.31;;;14.58;79.39
75521;BME280;64102;48.628;9.002;2022-10-16T04:45:27;95992.44;;;14.65;78.93
75521;BME280;64102;48.628;9.002;2022-10-16T04:47:52;95987.44;;;14.64;79.29
75521;BME280;64102;48.628;9.002;2022-10-16T04:50:18;95994.22;;;14.65;79.46
75521;BME280;64102;48.628;9.002;2022-10-16T04:52:43;96005.91;;;14.69;78.93
75521;BME280;64102;48.628;9.002;2022-10-16T04:55:09;96016.78;;;14.64;79.48
75521;BME280;64102;48.628;9.002;2022-10-16T04:57:34;96014.06;;;14.58;79.52
75521;BME280;64102;48.628;9.002;2022-10-16T05:00:00;96006.59;;;14.55;79.68
75521;BME280;64102;48.628;9.002;2022-10-16T05:02:25;96016.50;;;14.51;79.85
75521;BME280;64102;48.628;9.002;2022-10-16T05:04:51;96019.09;;;14.43;80.33
75521;BME280;64102;48.628;9.002;2022-10-16T05:07:16;96023.81;;;14.40;80.41
75521;BME280;64102;48.628;9.002;2022-10-16T05:09:42;96023.63;;;14.33;79.99
75521;BME280;64102;48.628;9.002;2022-10-16T05:12:07;96031.59;;;14.23;81.23
75521;BME280;64102;48.628;9.002;2022-10-16T05:14:32;96026.69;;;14.12;81.91
75521;BME280;64102;48.628;9.002;2022-10-16T05:16:59;96018.09;;;14.04;82.19
75521;BME280;64102;48.628;9.002;2022-10-16T05:19:25;96017.63;;;13.92;83.18
75521;BME280;64102;48.628;9.002;2022-10-16T05:21:50;96019.53;;;13.74;83.59
75521;BME280;64102;48.628;9.002;2022-10-16T05:24:16;96020.97;;;13.60;84.14
75521;BME280;64102;48.628;9.002;2022-10-16T05:26:41;96026.97;;;13.61;84.26
75521;BME280;64102;48.628;9.002;2022-10-16T05:29:06;96023.03;;;13.49;84.92
75521;BME280;64102;48.628;9.002;2022-10-16T05:31:32;96023.66;;;13.42;84.91
75521;BME280;64102;48.628;9.002;2022-10-16T05:34:01;96034.97;;;13.33;85.73
75521;BME280;64102;48.628;9.002;2022-10-16T05:36:26;96028.13;;;13.24;85.73
75521;BME280;64102;48.628;9.002;2022-10-16T05:38:52;96032.31;;;13.17;86.54
75521;BME280;64102;48.628;9.002;2022-10-16T05:41:18;96032.56;;;13.06;86.77
75521;BME280;64102;48.628;9.002;2022-10-16T05:43:47;96031.06;;;13.03;87.35
75521;BME280;64102;48.628;9.002;2022-10-16T05:46:13;96041.13;;;12.98;87.52
75521;BME280;64102;48.628;9.002;2022-10-16T05:48:39;96047.91;;;12.99;87.55
75521;BME280;64102;48.628;9.002;2022-10-16T05:51:07;96045.16;;;13.01;87.28
75521;BME280;64102;48.628;9.002;2022-10-16T05:53:35;96043.13;;;13.13;86.90
75521;BME280;64102;48.628;9.002;2022-10-16T05:56:01;96052.81;;;13.36;85.86
75521;BME280;64102;48.628;9.002;2022-10-16T05:58:32;96052.34;;;13.41;85.38
75521;BME280;64102;48.628;9.002;2022-10-16T06:01:00;96055.16;;;13.56;84.70
75521;BME280;64102;48.628;9.002;2022-10-16T06:03:27;96068.94;;;13.56;84.94
75521;BME280;64102;48.628;9.002;2022-10-16T06:05:52;96063.44;;;13.67;84.38
75521;BME280;64102;48.628;9.002;2022-10-16T06:08:20;96065.22;;;13.75;83.80
75521;BME280;64102;48.628;9.002;2022-10-16T06:10:46;96065.56;;;13.80;83.53
75521;BME280;64102;48.628;9.002;2022-10-16T06:13:13;96075.47;;;13.84;84.12
75521;BME280;64102;48.628;9.002;2022-10-16T06:15:39;96069.19;;;13.95;83.45
75521;BME280;64102;48.628;9.002;2022-10-16T06:18:10;96064.88;;;14.36;82.12
75521;BME280;64102;48.628;9.002;2022-10-16T06:20:36;96069.88;;;14.86;79.44
75521;BME280;64102;48.628;9.002;2022-10-16T06:23:03;96077.09;;;15.70;76.04
75521;BME280;64102;48.628;9.002;2022-10-16T06:25:30;96068.94;;;15.34;77.13
75521;BME280;64102;48.628;9.002;2022-10-16T06:27:55;96071.13;;;15.06;78.39
75521;BME280;64102;48.628;9.002;2022-10-16T06:30:21;96080.25;;;14.94;79.04
75521;BME280;64102;48.628;9.002;2022-10-16T06:32:46;96074.38;;;15.00;78.59
75521;BME280;64102;48.628;9.002;2022-10-16T06:35:11;96072.72;;;15.15;77.98
75521;BME280;64102;48.628;9.002;2022-10-16T06:37:37;96085.88;;;15.22;78.48
75521;BME280;64102;48.628;9.002;2022-10-16T06:40:02;96086.66;;;15.22;78.24
75521;BME280;64102;48.628;9.002;2022-10-16T06:42:29;96092.91;;;16.45;73.74
75521;BME280;64102;48.628;9.002;2022-10-16T06:44:55;96088.69;;;17.48;68.41
75521;BME280;64102;48.628;9.002;2022-10-16T06:47:20;96083.38;;;17.85;66.24
75521;BME280;64102;48.628;9.002;2022-10-16T06:49:45;96082.47;;;17.64;67.14
75521;BME280;64102;48.628;9.002;2022-10-16T06:52:11;96091.16;;;16.83;70.20
75521;BME280;64102;48.628;9.002;2022-10-16T06:54:36;96096.91;;;16.33;71.69
75521;BME280;64102;48.628;9.002;2022-10-16T06:57:02;96089.75;;;16.04;72.66
75521;BME280;64102;48.628;9.002;2022-10-16T06:59:27;96093.09;;;15.90;73.49
75521;BME280;64102;48.628;9.002;2022-10-16T07:01:52;96094.25;;;15.87;73.62
75521;BME280;64102;48.628;9.002;2022-10-16T07:04:18;96099.66;;;15.78;74.07
75521;BME280;64102;48.628;9.002;2022-10-16T07:06:43;96105.03;;;15.76;74.39
75521;BME280;64102;48.628;9.002;2022-10-16T07:09:09;96114.34;;;15.71;74.37
75521;BME280;64102;48.628;9.002;2022-10-16T07:11:39;96125.06;;;15.67;74.67
75521;BME280;64102;48.628;9.002;2022-10-16T07:14:14;96140.38;;;15.62;75.07
75521;BME280;64102;48.628;9.002;2022-10-16T07:16:40;96137.75;;;15.62;74.63
75521;BME280;64102;48.628;9.002;2022-10-16T07:19:05;96138.91;;;15.60;75.31
75521;BME280;64102;48.628;9.002;2022-10-16T07:21:33;96155.19;;;15.54;75.79
75521;BME280;64102;48.628;9.002;2022-10-16T07:24:03;96156.66;;;15.48;76.41
75521;BME280;64102;48.628;9.002;2022-10-16T07:26:31;96160.06;;;15.41;76.75
75521;BME280;64102;48.628;9.002;2022-10-16T07:28:56;96162.34;;;15.36;77.47
75521;BME280;64102;48.628;9.002;2022-10-16T07:31:22;96162.84;;;15.39;77.53
75521;BME280;64102;48.628;9.002;2022-10-16T07:33:49;96165.94;;;15.43;77.67
75521;BME280;64102;48.628;9.002;2022-10-16T07:36:16;96165.94;;;15.43;78.19
75521;BME280;64102;48.628;9.002;2022-10-16T07:38:43;96163.66;;;15.40;77.83
75521;BME280;64102;48.628;9.002;2022-10-16T07:41:11;96175.84;;;15.47;77.18
75521;BME280;64102;48.628;9.002;2022-10-16T07:43:37;96174.06;;;15.56;77.59
75521;BME280;64102;48.628;9.002;2022-10-16T07:46:02;96176.16;;;15.60;76.64
75521;BME280;64102;48.628;9.002;2022-10-16T07:48:30;96173.34;;;15.78;75.75
75521;BME280;64102;48.628;9.002;2022-10-16T07:50:57;96179.81;;;15.82;75.81
75521;BME280;64102;48.628;9.002;2022-10-16T07:53:23;96190.25;;;15.74;75.79
75521;BME280;64102;48.628;9.002;2022-10-16T07:55:48;96189.78;;;15.71;76.61
75521;BME280;64102;48.628;9.002;2022-10-16T07:58:14;96190.59;;;15.71;76.50
75521;BME280;64102;48.628;9.002;2022-10-16T08:00:39;96191.72;;;15.68;76.22
75521;BME280;64102;48.628;9.002;2022-10-16T08:03:04;96198.69;;;15.76;75.54
75521;BME280;64102;48.628;9.002;2022-10-16T08:05:32;96194.81;;;15.72;75.44
75521;BME280;64102;48.628;9.002;2022-10-16T08:07:58;96201.59;;;15.81;75.61
75521;BME280;64102;48.628;9.002;2022-10-16T08:10:25;96199.31;;;15.86;75.49
75521;BME280;64102;48.628;9.002;2022-10-16T08:12:52;96202.00;;;16.09;74.29
75521;BME280;64102;48.628;9.002;2022-10-16T08:15:18;96191.53;;;16.17;73.43
75521;BME280;64102;48.628;9.002;2022-10-16T08:17:44;96194.94;;;16.48;72.60
75521;BME280;64102;48.628;9.002;2022-10-16T08:20:10;96190.44;;;16.73;71.34
75521;BME280;64102;48.628;9.002;2022-10-16T08:22:36;96199.91;;;16.89;71.47
75521;BME280;64102;48.628;9.002;2022-10-16T08:25:01;96201.53;;;16.90;70.74
75521;BME280;64102;48.628;9.002;2022-10-16T08:27:33;96198.56;;;16.78;70.95
75521;BME280;64102;48.628;9.002;2022-10-16T08:29:58;96200.91;;;16.88;71.35
75521;BME280;64102;48.628;9.002;2022-10-16T08:32:24;96202.28;;;16.98;71.13
75521;BME280;64102;48.628;9.002;2022-10-16T08:34:49;96210.47;;;16.95;70.79
75521;BME280;64102;48.628;9.002;2022-10-16T08:37:14;96217.03;;;16.91;70.49
75521;BME280;64102;48.628;9.002;2022-10-16T08:39:40;96212.72;;;16.76;71.36
75521;BME280;64102;48.628;9.002;2022-10-16T08:47:49;96209.44;;;16.82;71.40
75521;BME280;64102;48.628;9.002;2022-10-16T08:50:38;96218.53;;;16.86;70.77
75521;BME280;64102;48.628;9.002;2022-10-16T08:53:04;96223.81;;;17.00;70.74
75521;BME280;64102;48.628;9.002;2022-10-16T08:55:33;96232.75;;;16.98;70.84
75521;BME280;64102;48.628;9.002;2022-10-16T08:58:00;96230.59;;;16.87;71.02
75521;BME280;64102;48.628;9.002;2022-10-16T09:00:27;96224.63;;;16.78;71.05
75521;BME280;64102;48.628;9.002;2022-10-16T09:09:05;96230.97;;;17.21;69.43
75521;BME280;64102;48.628;9.002;2022-10-16T09:15:26;96237.19;;;17.35;69.39
75521;BME280;64102;48.628;9.002;2022-10-16T09:19:56;96230.03;;;18.90;63.18
75521;BME280;64102;48.628;9.002;2022-10-16T09:22:27;96236.34;;;18.45;64.97
75521;BME280;64102;48.628;9.002;2022-10-16T09:24:55;96241.72;;;19.86;60.18
75521;BME280;64102;48.628;9.002;2022-10-16T09:27:24;96241.84;;;20.12;59.64
75521;BME280;64102;48.628;9.002;2022-10-16T09:29:51;96236.03;;;22.86;51.54
75521;BME280;64102;48.628;9.002;2022-10-16T09:32:19;96245.56;;;23.93;47.99
75521;BME280;64102;48.628;9.002;2022-10-16T09:34:54;96243.72;;;22.37;51.40
75521;BME280;64102;48.628;9.002;2022-10-16T09:37:22;96235.13;;;22.61;50.26
75521;BME280;64102;48.628;9.002;2022-10-16T09:39:51;96243.28;;;22.97;49.60
75521;BME280;64102;48.628;9.002;2022-10-16T09:42:23;96232.84;;;23.15;47.68
75521;BME280;64102;48.628;9.002;2022-10-16T09:44:52;96237.41;;;23.27;47.43
75521;BME280;64102;48.628;9.002;2022-10-16T09:47:21;96232.84;;;24.33;44.81
75521;BME280;64102;48.628;9.002;2022-10-16T09:49:57;96234.88;;;24.97;44.13
75521;BME280;64102;48.628;9.002;2022-10-16T09:52:25;96242.84;;;25.62;42.58
75521;BME280;64102;48.628;9.002;2022-10-16T09:54:56;96245.22;;;24.99;43.29
75521;BME280;64102;48.628;9.002;2022-10-16T09:57:23;96246.59;;;25.42;42.33
75521;BME280;64102;48.628;9.002;2022-10-16T09:59:51;96249.44;;;25.41;41.38
75521;BME280;64102;48.628;9.002;2022-10-16T10:02:19;96248.47;;;22.66;47.82
75521;BME280;64102;48.628;9.002;2022-10-16T10:04:52;96261.03;;;21.80;50.05
75521;BME280;64102;48.628;9.002;2022-10-16T10:07:27;96267.59;;;22.93;48.51
75521;BME280;64102;48.628;9.002;2022-10-16T10:09:54;96275.53;;;23.98;46.03
75521;BME280;64102;48.628;9.002;2022-10-16T10:12:27;96268.00;;;25.23;42.76
75521;BME280;64102;48.628;9.002;2022-10-16T10:14:57;96268.78;;;24.64;43.24
75521;BME280;64102;48.628;9.002;2022-10-16T10:17:27;96265.50;;;24.50;44.76
75521;BME280;64102;48.628;9.002;2022-10-16T10:22:24;96259.66;;;25.26;42.75
75521;BME280;64102;48.628;9.002;2022-10-16T10:25:18;96269.66;;;23.53;47.26
75521;BME280;64102;48.628;9.002;2022-10-16T10:33:34;96261.44;;;25.55;42.44
75521;BME280;64102;48.628;9.002;2022-10-16T10:46:53;96258.16;;;27.09;37.62
75521;BME280;64102;48.628;9.002;2022-10-16T10:52:22;96261.06;;;26.56;38.89
75521;BME280;64102;48.628;9.002;2022-10-16T10:55:20;96266.66;;;26.20;39.73
75521;BME280;64102;48.628;9.002;2022-10-16T10:58:04;96265.19;;;26.24;39.10
75521;BME280;64102;48.628;9.002;2022-10-16T11:07:08;96260.00;;;25.41;42.30
75521;BME280;64102;48.628;9.002;2022-10-16T11:09:32;96258.78;;;25.02;42.36
75521;BME280;64102;48.628;9.002;2022-10-16T11:12:23;96259.25;;;25.11;43.36
75521;BME280;64102;48.628;9.002;2022-10-16T11:14:58;96254.50;;;24.53;42.50
75521;BME280;64102;48.628;9.002;2022-10-16T11:17:41;96254.16;;;24.79;43.42
75521;BME280;64102;48.628;9.002;2022-10-16T11:20:23;96258.72;;;25.20;41.53
75521;BME280;64102;48.628;9.002;2022-10-16T11:25:24;96255.22;;;26.94;37.63
75521;BME280;64102;48.628;9.002;2022-10-16T11:31:13;96255.78;;;27.41;36.92
75521;BME280;64102;48.628;9.002;2022-10-16T11:33:41;96258.41;;;27.70;35.33
75521;BME280;64102;48.628;9.002;2022-10-16T11:36:33;96259.84;;;27.94;35.31
75521;BME280;64102;48.628;9.002;2022-10-16T11:41:51;96248.34;;;29.14;32.81
75521;BME280;64102;48.628;9.002;2022-10-16T11:44:20;96250.25;;;29.18;34.79
75521;BME280;64102;48.628;9.002;2022-10-16T11:49:27;96241.25;;;29.46;32.41
75521;BME280;64102;48.628;9.002;2022-10-16T11:54:59;96237.47;;;29.15;33.71
75521;BME280;64102;48.628;9.002;2022-10-16T11:57:38;96243.44;;;28.57;34.48
75521;BME280;64102;48.628;9.002;2022-10-16T12:00:18;96251.03;;;28.48;35.20
75521;BME280;64102;48.628;9.002;2022-10-16T12:05:23;96240.66;;;30.60;31.27
75521;BME280;64102;48.628;9.002;2022-10-16T12:08:11;96249.38;;;31.48;30.22
75521;BME280;64102;48.628;9.002;2022-10-16T12:10:39;96241.06;;;29.58;32.69
75521;BME280;64102;48.628;9.002;2022-10-16T12:18:41;96243.59;;;26.55;39.37
75521;BME280;64102;48.628;9.002;2022-10-16T12:21:08;96242.34;;;26.46;38.87
75521;BME280;64102;48.628;9.002;2022-10-16T12:23:37;96242.25;;;26.81;37.44
75521;BME280;64102;48.628;9.002;2022-10-16T12:26:04;96249.63;;;27.69;35.86
75521;BME280;64102;48.628;9.002;2022-10-16T12:28:31;96249.88;;;28.61;34.03
75521;BME280;64102;48.628;9.002;2022-10-16T12:31:06;96246.97;;;28.41;35.37
75521;BME280;64102;48.628;9.002;2022-10-16T12:33:33;96241.22;;;26.42;37.71
75521;BME280;64102;48.628;9.002;2022-10-16T12:36:03;96250.88;;;25.14;41.75
75521;BME280;64102;48.628;9.002;2022-10-16T12:38:49;96247.56;;;24.40;42.55
75521;BME280;64102;48.628;9.002;2022-10-16T12:41:30;96244.31;;;24.38;41.41
75521;BME280;64102;48.628;9.002;2022-10-16T12:43:57;96238.63;;;23.98;44.75
75521;BME280;64102;48.628;9.002;2022-10-16T12:51:40;96241.31;;;23.74;47.17
75521;BME280;64102;48.628;9.002;2022-10-16T12:54:16;96245.09;;;24.75;44.15
75521;BME280;64102;48.628;9.002;2022-10-16T12:57:25;96248.03;;;26.15;40.46
75521;BME280;64102;48.628;9.002;2022-10-16T13:02:34;96251.78;;;27.39;37.65
75521;BME280;64102;48.628;9.002;2022-10-16T13:08:12;96249.91;;;27.68;36.32
75521;BME280;64102;48.628;9.002;2022-10-16T13:19:40;96257.59;;;26.67;38.91
75521;BME280;64102;48.628;9.002;2022-10-16T13:28:00;96250.84;;;27.62;37.63
75521;BME280;64102;48.628;9.002;2022-10-16T13:30:29;96260.59;;;27.28;38.01
75521;BME280;64102;48.628;9.002;2022-10-16T13:33:01;96255.63;;;26.00;39.07
75521;BME280;64102;48.628;9.002;2022-10-16T13:35:30;96256.69;;;25.34;42.33
75521;BME280;64102;48.628;9.002;2022-10-16T13:40:48;96265.19;;;24.58;45.32
75521;BME280;64102;48.628;9.002;2022-10-16T13:43:14;96261.22;;;24.13;46.70
75521;BME280;64102;48.628;9.002;2022-10-16T13:45:39;96256.94;;;23.93;44.47
75521;BME280;64102;48.628;9.002;2022-10-16T13:48:06;96253.53;;;23.68;47.00
75521;BME280;64102;48.628;9.002;2022-10-16T13:50:34;96253.81;;;24.03;46.10
75521;BME280;64102;48.628;9.002;2022-10-16T13:53:09;96260.59;;;24.10;47.98
75521;BME280;64102;48.628;9.002;2022-10-16T13:55:38;96254.66;;;24.40;45.92
75521;BME280;64102;48.628;9.002;2022-10-16T13:58:14;96259.72;;;24.41;45.96
75521;BME280;64102;48.628;9.002;2022-10-16T14:00:40;96254.78;;;24.63;44.87
75521;BME280;64102;48.628;9.002;2022-10-16T14:03:18;96250.88;;;24.66;43.10
75521;BME280;64102;48.628;9.002;2022-10-16T14:06:06;96268.28;;;24.37;44.51
75521;BME280;64102;48.628;9.002;2022-10-16T14:08:42;96263.38;;;24.22;45.06
75521;BME280;64102;48.628;9.002;2022-10-16T14:11:08;96269.34;;;24.11;45.46
75521;BME280;64102;48.628;9.002;2022-10-16T14:13:38;96264.44;;;24.15;46.50
75521;BME280;64102;48.628;9.002;2022-10-16T14:16:07;96276.63;;;24.16;48.18
75521;BME280;64102;48.628;9.002;2022-10-16T14:18:34;96265.22;;;23.97;48.07
75521;BME280;64102;48.628;9.002;2022-10-16T14:21:12;96267.59;;;23.80;48.23
75521;BME280;64102;48.628;9.002;2022-10-16T14:23:39;96276.69;;;23.84;48.80
75521;BME280;64102;48.628;9.002;2022-10-16T14:26:17;96269.63;;;24.03;49.91
75521;BME280;64102;48.628;9.002;2022-10-16T14:28:44;96270.28;;;23.98;47.29
75521;BME280;64102;48.628;9.002;2022-10-16T14:33:44;96275.22;;;23.88;47.54
75521;BME280;64102;48.628;9.002;2022-10-16T14:38:36;96278.44;;;23.47;48.72
75521;BME280;64102;48.628;9.002;2022-10-16T14:41:03;96282.78;;;23.60;47.08
75521;BME280;64102;48.628;9.002;2022-10-16T14:43:31;96283.28;;;23.44;47.90
75521;BME280;64102;48.628;9.002;2022-10-16T14:45:58;96286.31;;;23.72;49.25
75521;BME280;64102;48.628;9.002;2022-10-16T14:48:24;96280.88;;;23.67;47.04
75521;BME280;64102;48.628;9.002;2022-10-16T14:50:50;96283.34;;;23.62;49.18
75521;BME280;64102;48.628;9.002;2022-10-16T14:53:16;96278.94;;;23.81;48.76
75521;BME280;64102;48.628;9.002;2022-10-16T14:55:42;96281.56;;;24.05;50.22
75521;BME280;64102;48.628;9.002;2022-10-16T14:58:15;96289.00;;;23.90;49.79
75521;BME280;64102;48.628;9.002;2022-10-16T15:00:41;96283.03;;;24.01;50.06
75521;BME280;64102;48.628;9.002;2022-10-16T15:03:07;96280.56;;;23.57;49.30
75521;BME280;64102;48.628;9.002;2022-10-16T15:05:32;96279.34;;;22.90;49.55
75521;BME280;64102;48.628;9.002;2022-10-16T15:07:57;96284.75;;;22.57;49.74